Time;durP1;ratioP1;P1;durP2;ratioP2;P2;SDS_P1;SDS_P2;PMS_P1;PMS_P2;Temp;Humidity;BMP_temperature;BMP_pressure;BME280_temperature;BME280_humidity;BME280_pressure;Samples;Min_cycle;Max_cycle;Signal;HPM_P1;HPM_P2
2022/03/12 00:01:16;;;;;;;10.60;5.00;;;7.70;83.70;;;;;;5036323;28;20037;-72
2022/03/12 00:03:42;;;;;;;11.85;6.30;;;7.70;84.00;;;;;;5052825;28;20033;-72
2022/03/12 00:06:09;;;;;;;9.82;5.72;;;7.70;83.10;;;;;;5053899;28;20466;-72
2022/03/12 00:08:54;;;;;;;9.32;5.05;;;7.90;84.80;;;;;;5036490;28;20413;-72
2022/03/12 00:11:24;;;;;;;10.10;4.85;;;7.60;86.10;;;;;;5036045;28;20374;-72
2022/03/12 00:13:51;;;;;;;11.35;6.40;;;7.30;86.00;;;;;;5054025;28;20080;-72
2022/03/12 00:16:25;;;;;;;10.00;5.57;;;7.40;86.50;;;;;;5035956;28;20049;-72
2022/03/12 00:18:58;;;;;;;9.20;5.03;;;7.60;87.20;;;;;;5053354;28;20044;-72
2022/03/12 00:21:25;;;;;;;9.88;5.43;;;7.70;86.80;;;;;;5053670;28;20073;-72
2022/03/12 00:23:53;;;;;;;10.98;5.90;;;7.70;88.40;;;;;;5018830;28;20045;-72
2022/03/12 00:26:23;;;;;;;10.38;5.38;;;7.50;90.30;;;;;;5018799;28;20037;-72
2022/03/12 00:28:50;;;;;;;10.30;5.45;;;7.80;90.80;;;;;;5036036;28;20489;-72
2022/03/12 00:31:16;;;;;;;10.35;5.47;;;7.20;90.20;;;;;;5018697;28;20811;-72
2022/03/12 00:33:42;;;;;;;9.43;6.07;;;8.00;90.10;;;;;;5053845;28;20128;-72
2022/03/12 00:36:09;;;;;;;11.48;5.95;;;7.50;89.30;;;;;;5053635;28;20037;-72
2022/03/12 00:38:35;;;;;;;10.43;5.43;;;7.70;91.10;;;;;;5034993;28;20094;-72
2022/03/12 00:41:04;;;;;;;13.38;5.90;;;7.60;91.60;;;;;;5035362;28;20072;-71
2022/03/12 00:43:30;;;;;;;10.52;6.00;;;7.80;91.20;;;;;;5035222;28;20072;-72
2022/03/12 00:45:56;;;;;;;8.95;5.68;;;7.80;93.00;;;;;;5035616;28;20049;-72
2022/03/12 00:48:21;;;;;;;12.43;6.18;;;7.60;91.50;;;;;;5035334;28;20037;-72
2022/03/12 00:50:48;;;;;;;10.05;5.68;;;;;;;;;;5035045;28;20041;-72
2022/03/12 00:53:13;;;;;;;11.25;5.38;;;8.00;91.20;;;;;;5018370;28;20051;-72
2022/03/12 00:55:39;;;;;;;9.40;5.90;;;7.80;90.20;;;;;;5053427;28;20402;-72
2022/03/12 00:58:05;;;;;;;9.30;5.32;;;7.90;90.00;;;;;;5035339;28;20052;-72
2022/03/12 01:00:31;;;;;;;10.45;5.30;;;7.60;89.00;;;;;;5034810;28;20037;-72
2022/03/12 01:02:57;;;;;;;9.25;5.25;;;7.80;88.00;;;;;;5035009;28;20128;-72
2022/03/12 01:05:39;;;;;;;10.23;6.32;;;7.80;89.20;;;;;;5018004;28;20155;-72
2022/03/12 01:08:05;;;;;;;9.68;5.32;;;7.70;91.00;;;;;;5034448;28;20051;-72
2022/03/12 01:10:31;;;;;;;10.35;5.68;;;7.80;91.80;;;;;;5034883;28;20115;-72
2022/03/12 01:12:57;;;;;;;9.43;5.32;;;7.60;88.70;;;;;;5018494;28;20405;-72
2022/03/12 01:15:22;;;;;;;10.75;6.00;;;7.90;90.20;;;;;;5034398;28;20043;-72
2022/03/12 01:17:48;;;;;;;8.82;5.57;;;7.30;90.30;;;;;;5052747;28;20033;-72
2022/03/12 01:20:13;;;;;;;10.02;5.47;;;7.80;89.80;;;;;;5033964;28;20067;-72
2022/03/12 01:22:40;;;;;;;10.63;5.05;;;7.90;90.30;;;;;;5053174;28;20573;-72
2022/03/12 01:25:07;;;;;;;9.32;5.60;;;7.60;90.10;;;;;;5034901;28;20070;-72
2022/03/12 01:27:35;;;;;;;11.18;5.75;;;7.30;88.50;;;;;;5034109;28;20045;-72
2022/03/12 01:30:02;;;;;;;8.45;4.88;;;7.80;90.10;;;;;;5052713;28;20040;-72
2022/03/12 01:32:28;;;;;;;10.77;6.05;;;7.70;89.00;;;;;;5034772;28;20494;-72
2022/03/12 01:34:54;;;;;;;10.02;4.72;;;7.40;90.30;;;;;;5033870;28;20083;-72
2022/03/12 01:37:20;;;;;;;10.43;5.78;;;8.00;90.10;;;;;;5052379;28;20037;-72
2022/03/12 01:39:47;;;;;;;10.18;6.45;;;7.80;90.20;;;;;;5034412;28;20045;-72
2022/03/12 01:42:14;;;;;;;9.23;5.40;;;7.60;91.90;;;;;;5030591;28;20128;-72
2022/03/12 01:44:40;;;;;;;9.32;5.25;;;;;;;;;;5031320;28;20046;-72
2022/03/12 01:47:08;;;;;;;9.80;5.18;;;7.40;90.90;;;;;;5031405;28;20134;-72
2022/03/12 01:49:34;;;;;;;8.85;6.15;;;7.60;93.80;;;;;;5030983;28;20069;-72
2022/03/12 01:52:00;;;;;;;8.98;5.32;;;;;;;;;;5030904;28;20502;-72
2022/03/12 01:54:28;;;;;;;9.52;4.93;;;7.40;92.80;;;;;;5030693;28;20494;-72
2022/03/12 01:56:54;;;;;;;8.77;4.75;;;;;;;;;;5030487;28;20029;-72
2022/03/12 01:59:21;;;;;;;11.50;5.82;;;7.30;93.30;;;;;;5030988;28;20041;-72
2022/03/12 02:01:51;;;;;;;9.20;4.72;;;7.80;91.10;;;;;;5032214;28;20076;-72
2022/03/12 02:04:18;;;;;;;9.02;5.10;;;7.80;91.30;;;;;;5031259;28;20077;-72
2022/03/12 02:06:46;;;;;;;8.93;5.10;;;7.50;92.30;;;;;;5030906;28;20041;-72
2022/03/12 02:09:16;;;;;;;10.80;5.43;;;7.50;62.20;;;;;;5030773;28;20045;-72
2022/03/12 02:11:48;;;;;;;10.80;5.43;;;7.40;92.40;;;;;;5030386;28;20049;-72
2022/03/12 02:14:16;;;;;;;9.77;5.53;;;7.60;91.50;;;;;;5030365;28;20505;-72
2022/03/12 02:16:51;;;;;;;12.60;5.95;;;7.50;91.50;;;;;;5029935;28;20050;-72
2022/03/12 02:19:18;;;;;;;10.80;6.30;;;7.50;64.30;;;;;;5031045;28;20042;-72
2022/03/12 02:21:55;;;;;;;8.20;4.63;;;7.80;92.60;;;;;;5031669;28;20026;-72
2022/03/12 02:24:24;;;;;;;9.73;5.70;;;7.20;92.20;;;;;;5030716;28;20344;-72
2022/03/12 02:26:51;;;;;;;8.93;5.10;;;7.40;90.60;;;;;;5034764;28;20038;-72
2022/03/12 02:29:22;;;;;;;9.30;5.43;;;7.70;91.30;;;;;;5034828;28;20048;-72
2022/03/12 02:31:57;;;;;;;11.75;5.70;;;7.60;90.90;;;;;;5034377;28;20042;-72
2022/03/12 02:34:38;;;;;;;12.18;6.15;;;7.70;92.20;;;;;;5034315;28;20037;-72
2022/03/12 02:37:05;;;;;;;12.15;6.00;;;7.80;92.90;;;;;;5034659;28;20037;-71
2022/03/12 02:39:31;;;;;;;10.15;6.05;;;7.80;92.50;;;;;;5034080;28;20503;-72
2022/03/12 02:42:00;;;;;;;10.95;5.68;;;7.90;91.60;;;;;;5037574;28;20060;-71
2022/03/12 02:44:28;;;;;;;12.10;5.43;;;7.90;91.80;;;;;;5037893;28;20051;-71
2022/03/12 02:47:32;;;;;;;11.50;6.50;;;7.80;58.20;;;;;;5054911;28;20069;-71
2022/03/12 02:50:03;;;;;;;9.77;5.50;;;7.90;88.50;;;;;;5042077;28;20056;-71
2022/03/12 02:52:31;;;;;;;10.85;6.30;;;8.10;91.20;;;;;;5055054;28;20157;-72
2022/03/12 02:54:59;;;;;;;15.32;6.43;;;7.80;90.10;;;;;;5055276;28;20044;-72
2022/03/12 02:57:26;;;;;;;12.57;5.45;;;7.90;90.20;;;;;;5037763;28;20372;-72
2022/03/12 02:59:53;;;;;;;11.70;6.03;;;7.80;87.80;;;;;;5020423;28;20045;-72
2022/03/12 03:02:25;;;;;;;12.93;6.55;;;7.60;87.50;;;;;;5037457;28;20091;-72
2022/03/12 03:04:51;;;;;;;12.85;6.13;;;7.80;88.80;;;;;;5019708;28;20433;-72
2022/03/12 03:07:17;;;;;;;11.27;5.70;;;8.00;86.50;;;;;;5017134;28;20056;-72
2022/03/12 03:09:43;;;;;;;9.38;5.90;;;7.50;87.70;;;;;;5017515;28;20056;-72
2022/03/12 03:12:10;;;;;;;10.85;6.05;;;8.20;87.60;;;;;;5017577;28;20033;-72
2022/03/12 03:14:43;;;;;;;11.57;6.15;;;8.00;59.00;;;;;;5017668;28;20107;-71
2022/03/12 03:17:12;;;;;;;15.13;7.50;;;8.20;89.10;;;;;;5050443;28;20045;-71
2022/03/12 03:19:38;;;;;;;13.27;7.18;;;9.50;60.40;;;;;;5036041;28;20085;-71
2022/03/12 03:22:05;;;;;;;13.68;6.38;;;8.20;88.10;;;;;;5034450;28;20421;-72
2022/03/12 03:24:31;;;;;;;11.82;5.85;;;7.90;59.40;;;;;;5033817;28;20047;-71
2022/03/12 03:27:00;;;;;;;10.60;6.30;;;8.10;90.00;;;;;;5036266;28;20124;-71
2022/03/12 03:29:29;;;;;;;10.38;6.20;;;7.90;88.80;;;;;;5036883;28;20073;-72
2022/03/12 03:31:56;;;;;;;15.55;7.50;;;7.80;87.70;;;;;;5036670;28;20044;-72
2022/03/12 03:34:23;;;;;;;12.32;6.88;;;8.20;88.90;;;;;;5035647;28;20052;-71
2022/03/12 03:36:49;;;;;;;12.73;6.68;;;7.80;88.00;;;;;;5036306;28;20055;-72
2022/03/12 03:39:15;;;;;;;10.85;6.82;;;8.20;86.80;;;;;;5035963;28;20134;-71
2022/03/12 03:41:41;;;;;;;11.68;6.57;;;7.90;86.90;;;;;;5036319;28;20084;-72
2022/03/12 03:44:08;;;;;;;10.95;5.25;;;7.70;61.70;;;;;;5021664;28;20406;-72
2022/03/12 03:46:34;;;;;;;12.88;6.22;;;8.00;59.90;;;;;;5034771;28;20124;-72
2022/03/12 03:49:01;;;;;;;9.82;6.25;;;8.00;83.30;;;;;;5049411;28;20045;-72
2022/03/12 03:51:26;;;;;;;12.77;6.75;;;8.30;84.70;;;;;;5016911;28;20056;-72
2022/03/12 03:53:52;;;;;;;11.90;6.40;;;8.00;85.20;;;;;;5016682;28;20041;-72
2022/03/12 03:56:19;;;;;;;12.80;7.03;;;7.90;85.70;;;;;;5034006;28;20037;-72
2022/03/12 03:58:45;;;;;;;12.73;7.72;;;8.10;85.70;;;;;;5036004;28;20048;-71
2022/03/12 04:01:14;;;;;;;17.30;8.43;;;8.10;86.10;;;;;;5016074;28;20470;-71
2022/03/12 04:03:48;;;;;;;15.82;8.38;;;7.70;85.60;;;;;;5016462;28;20056;-71
2022/03/12 04:06:19;;;;;;;16.70;9.05;;;7.70;85.70;;;;;;5034488;28;20065;-71
2022/03/12 04:08:45;;;;;;;19.23;10.65;;;7.40;85.90;;;;;;5000024;28;20044;-71
2022/03/12 04:11:19;;;;;;;19.17;8.98;;;7.50;86.30;;;;;;5034120;28;20391;-72
2022/03/12 04:13:46;;;;;;;16.27;7.68;;;8.00;87.40;;;;;;5016597;28;20049;-72
2022/03/12 04:16:13;;;;;;;13.63;7.28;;;7.80;87.40;;;;;;5033610;28;20045;-72
2022/03/12 04:18:39;;;;;;;17.48;8.07;;;8.30;63.90;;;;;;5016481;28;20054;-72
2022/03/12 04:21:06;;;;;;;16.45;8.13;;;7.70;64.90;;;;;;5016109;28;20042;-72
2022/03/12 04:23:32;;;;;;;18.77;8.57;;;7.60;65.40;;;;;;5049036;28;20037;-72
2022/03/12 04:25:59;;;;;;;16.67;8.27;;;7.40;89.50;;;;;;5034391;28;20033;-72
2022/03/12 04:28:32;;;;;;;15.30;8.05;;;7.80;90.10;;;;;;5033750;28;20037;-71
2022/03/12 04:31:02;;;;;;;17.58;9.23;;;7.80;91.10;;;;;;5015616;28;20083;-72
2022/03/12 04:33:29;;;;;;;19.92;9.10;;;7.30;91.50;;;;;;5033893;28;20037;-72
2022/03/12 04:35:55;;;;;;;12.35;7.93;;;7.40;68.60;;;;;;5016214;28;20243;-72
2022/03/12 04:38:21;;;;;;;16.88;7.68;;;7.20;92.30;;;;;;5015457;28;20045;-72
2022/03/12 04:40:47;;;;;;;14.65;6.82;;;7.40;70.40;;;;;;5037771;28;20118;-72
2022/03/12 04:43:13;;;;;;;12.85;6.93;;;7.40;77.60;;;;;;5035249;28;20375;-72
2022/03/12 04:45:42;;;;;;;10.88;7.15;;;7.20;75.60;;;;;;5035168;28;20056;-72
2022/03/12 04:48:09;;;;;;;11.65;7.28;;;7.10;77.50;;;;;;5035468;28;20462;-72
2022/03/12 04:50:35;;;;;;;11.52;7.07;;;7.00;75.40;;;;;;5035612;28;20063;-73
2022/03/12 04:53:01;;;;;;;12.07;8.05;;;7.00;79.40;;;;;;5034742;28;20045;-72
2022/03/12 04:55:28;;;;;;;16.35;7.65;;;7.10;86.00;;;;;;5018950;28;20056;-73
2022/03/12 04:57:54;;;;;;;13.35;8.00;;;7.10;84.00;;;;;;5018584;28;20417;-73
2022/03/12 05:00:27;;;;;;;11.30;7.07;;;7.00;86.20;;;;;;5034832;28;20069;-73
2022/03/12 05:02:55;;;;;;;13.43;8.85;;;6.40;99.90;;;;;;5034666;28;20045;-73
2022/03/12 05:05:21;;;;;;;15.88;7.57;;;6.70;89.50;;;;;;5052552;28;20041;-73
2022/03/12 05:07:48;;;;;;;13.90;7.63;;;6.70;91.20;;;;;;5035357;28;20138;-73
2022/03/12 05:10:18;;;;;;;11.85;6.60;;;6.60;92.60;;;;;;5035129;28;20410;-73
2022/03/12 05:12:47;;;;;;;11.68;7.35;;;6.60;94.00;;;;;;5034782;28;20045;-73
2022/03/12 05:15:14;;;;;;;12.35;7.35;;;6.50;94.70;;;;;;5034999;28;20497;-73
2022/03/12 05:17:46;;;;;;;16.33;7.68;;;7.10;95.60;;;;;;5052423;28;20044;-73
2022/03/12 05:20:18;;;;;;;12.82;7.97;;;6.50;96.20;;;;;;5034446;28;20045;-72
2022/03/12 05:22:44;;;;;;;12.38;8.07;;;6.50;99.90;;;;;;5052868;28;20143;-73
2022/03/12 05:25:10;;;;;;;12.98;7.00;;;6.90;99.90;;;;;;5052648;28;20473;-73
2022/03/12 05:27:36;;;;;;;12.23;7.85;;;6.20;99.90;;;;;;5034241;28;20044;-73
2022/03/12 05:30:03;;;;;;;14.45;7.65;;;6.40;98.40;;;;;;5052965;28;20520;-73
2022/03/12 05:32:28;;;;;;;12.65;8.43;;;6.70;99.90;;;;;;5034452;28;20053;-73
2022/03/12 05:34:54;;;;;;;11.93;7.57;;;6.70;99.90;;;;;;5033902;28;20052;-73
2022/03/12 05:37:20;;;;;;;11.75;7.10;;;6.40;99.90;;;;;;5034486;28;20085;-73
2022/03/12 05:39:49;;;;;;;10.73;6.47;;;7.40;99.90;;;;;;5034437;28;20470;-73
2022/03/12 05:42:17;;;;;;;9.55;6.25;;;6.30;99.90;;;;;;5030514;28;20084;-73
2022/03/12 05:44:44;;;;;;;12.07;7.97;;;6.40;99.90;;;;;;5031494;28;20061;-73
2022/03/12 05:47:10;;;;;;;12.75;8.15;;;6.20;99.90;;;;;;5032444;28;20033;-72
2022/03/12 05:49:36;;;;;;;12.98;7.18;;;6.20;99.90;;;;;;5030877;28;20051;-72
2022/03/12 05:52:03;;;;;;;12.65;7.93;;;6.00;99.90;;;;;;5032273;28;20127;-73
2022/03/12 05:54:29;;;;;;;11.38;7.47;;;;;;;;;;5014561;28;20053;-72
2022/03/12 05:56:55;;;;;;;14.18;8.25;;;6.00;99.90;;;;;;5031965;28;20056;-72
2022/03/12 05:59:21;;;;;;;11.75;7.18;;;6.60;99.90;;;;;;5030630;28;20056;-72
2022/03/12 06:01:46;;;;;;;12.25;7.03;;;6.30;99.90;;;;;;5030105;28;20429;-72
2022/03/12 06:04:12;;;;;;;11.50;6.88;;;5.90;99.90;;;;;;5032013;28;20030;-72
2022/03/12 06:06:46;;;;;;;13.48;7.28;;;6.40;99.90;;;;;;5032121;28;20038;-72
2022/03/12 06:09:12;;;;;;;11.68;7.47;;;6.10;99.90;;;;;;5030715;28;20144;-72
2022/03/12 06:11:38;;;;;;;15.25;7.43;;;6.00;99.90;;;;;;5032524;28;20084;-72
2022/03/12 06:14:04;;;;;;;13.52;7.45;;;6.00;99.90;;;;;;5030909;28;20069;-72
2022/03/12 06:16:31;;;;;;;10.77;7.13;;;6.10;99.90;;;;;;5013735;28;20048;-72
2022/03/12 06:18:57;;;;;;;12.23;7.18;;;5.90;99.90;;;;;;5031937;28;20049;-73
2022/03/12 06:21:23;;;;;;;9.63;6.18;;;6.50;99.90;;;;;;5030509;28;20052;-72
2022/03/12 06:23:49;;;;;;;13.63;7.63;;;5.80;99.90;;;;;;5030534;28;20038;-72
2022/03/12 06:26:16;;;;;;;13.05;7.90;;;;;;;;;;5030509;28;20050;-72
2022/03/12 06:28:44;;;;;;;13.88;7.63;;;6.20;99.90;;;;;;5031513;28;20045;-73
2022/03/12 06:31:12;;;;;;;11.57;6.95;;;6.40;99.90;;;;;;5030066;28;20099;-72
2022/03/12 06:33:39;;;;;;;12.07;7.70;;;6.70;99.90;;;;;;5031108;28;20057;-72
2022/03/12 06:36:05;;;;;;;13.05;7.47;;;6.10;99.90;;;;;;5031966;28;20041;-72
2022/03/12 06:38:32;;;;;;;11.45;6.68;;;6.10;99.90;;;;;;5031456;28;20033;-72
2022/03/12 06:40:58;;;;;;;11.60;7.65;;;6.20;99.90;;;;;;5030258;28;20413;-72
2022/03/12 06:43:30;;;;;;;12.75;7.20;;;6.40;99.90;;;;;;5030263;28;20041;-72
2022/03/12 06:46:01;;;;;;;10.50;6.90;;;6.10;99.90;;;;;;5031342;28;20449;-72
2022/03/12 06:48:29;;;;;;;12.68;7.53;;;5.60;99.90;;;;;;5030210;28;20132;-72
2022/03/12 06:50:55;;;;;;;12.00;6.97;;;5.70;99.90;;;;;;5013582;28;20120;-72
2022/03/12 06:53:21;;;;;;;11.35;7.10;;;5.60;99.90;;;;;;5032149;28;20045;-72
2022/03/12 06:55:46;;;;;;;11.80;7.18;;;6.00;99.90;;;;;;5031546;28;20041;-72
2022/03/12 06:58:12;;;;;;;14.50;8.68;;;5.90;99.90;;;;;;5029709;28;20391;-72
2022/03/12 07:00:38;;;;;;;13.27;7.60;;;;;;;;;;5030701;28;20054;-72
2022/03/12 07:03:04;;;;;;;14.10;8.88;;;5.80;99.90;;;;;;5030411;28;20041;-72
2022/03/12 07:05:30;;;;;;;13.68;6.97;;;6.00;99.90;;;;;;5030081;28;20483;-72
2022/03/12 07:07:56;;;;;;;12.25;7.00;;;5.60;99.90;;;;;;5013767;28;20033;-72
2022/03/12 07:10:22;;;;;;;13.15;7.75;;;5.90;99.90;;;;;;5013736;28;20508;-72
2022/03/12 07:12:49;;;;;;;15.77;7.20;;;5.50;99.90;;;;;;5032296;28;20099;-72
2022/03/12 07:15:17;;;;;;;12.90;6.95;;;5.90;99.90;;;;;;5035320;28;20048;-72
2022/03/12 07:17:43;;;;;;;12.38;7.72;;;5.90;99.90;;;;;;5033740;28;20077;-62
2022/03/12 07:20:10;;;;;;;12.52;7.68;;;6.00;99.90;;;;;;5033267;28;20122;-62
2022/03/12 07:22:36;;;;;;;15.15;7.25;;;5.90;99.90;;;;;;5036555;28;20039;-63
2022/03/12 07:25:02;;;;;;;13.40;7.82;;;5.50;99.90;;;;;;5034535;28;20045;-62
2022/03/12 07:27:28;;;;;;;11.95;7.90;;;;;;;;;;5034173;28;20109;-62
2022/03/12 07:29:54;;;;;;;12.45;7.25;;;6.80;99.90;;;;;;5033420;28;20459;-62
2022/03/12 07:32:20;;;;;;;13.20;6.97;;;5.80;99.90;;;;;;5031571;28;20052;-62
2022/03/12 07:34:47;;;;;;;12.43;7.60;;;;;;;;;;5031485;28;20124;-62
2022/03/12 07:37:12;;;;;;;12.98;7.63;;;6.30;99.90;;;;;;5031933;28;20041;-63
2022/03/12 07:39:39;;;;;;;13.18;7.03;;;6.50;99.90;;;;;;5032901;28;20437;-62
2022/03/12 07:42:05;;;;;;;13.32;7.70;;;6.60;99.90;;;;;;5048374;28;20057;-62
2022/03/12 07:44:31;;;;;;;11.38;7.60;;;6.30;99.90;;;;;;5052991;28;20163;-63
2022/03/12 07:46:57;;;;;;;12.20;6.95;;;6.30;99.90;;;;;;5035107;28;20366;-62
2022/03/12 07:49:25;;;;;;;13.55;7.75;;;7.10;99.90;;;;;;5024597;28;20124;-63
2022/03/12 07:51:51;;;;;;;9.82;6.40;;;;;;;;;;5066063;28;20049;-63
2022/03/12 07:54:17;;;;;;;13.80;7.80;;;;;;;;;;5034232;28;20048;-63
2022/03/12 07:56:44;;;;;;;12.43;7.80;;;;;;;;;;5051810;28;20481;-62
2022/03/12 07:59:11;;;;;;;12.43;7.63;;;;;;;;;;5033639;28;20049;-63
2022/03/12 08:01:37;;;;;;;12.00;6.80;;;;;;;;;;5033956;28;20146;-63
2022/03/12 08:04:04;;;;;;;14.68;7.78;;;7.20;98.10;;;;;;5052123;28;20060;-62
2022/03/12 08:06:30;;;;;;;15.27;9.07;;;;;;;;;;5033670;28;20207;-62
2022/03/12 08:08:57;;;;;;;14.65;8.48;;;7.40;99.90;;;;;;5031602;28;20049;-62
2022/03/12 08:11:28;;;;;;;10.75;7.32;;;7.10;99.90;;;;;;5051614;28;20033;-63
2022/03/12 08:13:55;;;;;;;14.48;7.55;;;;;;;;;;5033781;28;20127;-63
2022/03/12 08:16:21;;;;;;;13.25;8.13;;;;;;;;;;5033285;28;20052;-63
2022/03/12 08:18:48;;;;;;;18.60;9.02;;;;;;;;;;5033828;28;20139;-63
2022/03/12 08:21:15;;;;;;;15.85;8.55;;;7.70;96.90;;;;;;5033487;28;20044;-62
2022/03/12 08:23:41;;;;;;;15.15;8.80;;;7.90;99.90;;;;;;5049523;28;20041;-62
2022/03/12 08:26:07;;;;;;;15.07;9.23;;;;;;;;;;5033691;28;20127;-63
2022/03/12 08:28:34;;;;;;;14.88;8.38;;;8.50;99.90;;;;;;5051601;28;20053;-62
2022/03/12 08:31:01;;;;;;;12.55;8.02;;;8.20;99.90;;;;;;5050965;28;20075;-62
2022/03/12 08:33:27;;;;;;;15.27;8.02;;;8.50;99.90;;;;;;5033151;28;20057;-62
2022/03/12 08:35:53;;;;;;;14.73;8.98;;;8.30;97.20;;;;;;5033733;28;20037;-63
2022/03/12 08:38:19;;;;;;;13.05;7.68;;;;;;;;;;5031533;28;20045;-62
2022/03/12 08:40:46;;;;;;;13.43;8.50;;;8.90;99.90;;;;;;5033122;28;20085;-63
2022/03/12 08:43:13;;;;;;;14.85;9.02;;;;;;;;;;5033003;28;20116;-63
2022/03/12 08:45:38;;;;;;;13.30;7.82;;;8.70;99.90;;;;;;5051099;28;20175;-63
2022/03/12 08:48:04;;;;;;;12.50;7.65;;;8.30;99.90;;;;;;5032185;28;20504;-62
2022/03/12 08:50:32;;;;;;;13.77;9.23;;;9.00;99.90;;;;;;5050622;28;20067;-63
2022/03/12 08:52:58;;;;;;;13.15;7.93;;;;;;;;;;5032551;28;20060;-63
2022/03/12 08:55:25;;;;;;;12.55;7.65;;;9.00;97.90;;;;;;5032667;28;20437;-62
2022/03/12 08:57:52;;;;;;;14.13;8.77;;;9.20;99.90;;;;;;5049889;28;20041;-63
2022/03/12 09:00:19;;;;;;;14.10;8.45;;;9.30;99.90;;;;;;5025805;28;20044;-63
2022/03/12 09:02:46;;;;;;;12.02;8.07;;;9.00;99.90;;;;;;5048623;28;20677;-63
2022/03/12 09:05:14;;;;;;;11.43;7.45;;;9.90;99.90;;;;;;5049742;28;20041;-62
2022/03/12 09:07:41;;;;;;;13.20;8.30;;;9.70;99.90;;;;;;5037008;28;20055;-62
2022/03/12 09:10:11;;;;;;;11.32;7.15;;;;;;;;;;5032011;28;20052;-63
2022/03/12 09:12:37;;;;;;;15.00;8.10;;;10.10;99.90;;;;;;5031192;28;20053;-62
2022/03/12 09:15:04;;;;;;;12.50;6.78;;;10.00;99.90;;;;;;5050457;28;20076;-63
2022/03/12 09:17:30;;;;;;;13.05;7.63;;;;;;;;;;5031597;28;20491;-62
2022/03/12 09:19:56;;;;;;;12.20;6.60;;;10.20;99.90;;;;;;5037219;28;20041;-63
2022/03/12 09:22:23;;;;;;;19.52;8.20;;;9.80;99.90;;;;;;5031903;28;20355;-63
2022/03/12 09:24:49;;;;;;;14.43;8.75;;;10.30;99.90;;;;;;5031682;28;20055;-63
2022/03/12 09:27:14;;;;;;;11.27;7.65;;;10.40;99.90;;;;;;5031356;28;20047;-62
2022/03/12 09:29:41;;;;;;;14.82;8.23;;;10.80;99.90;;;;;;5031136;28;20040;-62
2022/03/12 09:32:10;;;;;;;13.50;7.97;;;10.30;99.90;;;;;;5050202;28;20129;-62
2022/03/12 09:34:37;;;;;;;15.40;8.57;;;10.40;99.90;;;;;;5031677;28;20045;-63
2022/03/12 09:37:05;;;;;;;13.35;8.63;;;10.40;99.90;;;;;;5014600;28;20048;-63
2022/03/12 09:39:31;;;;;;;13.20;7.60;;;;;;;;;;5031601;28;20095;-63
2022/03/12 09:41:57;;;;;;;14.55;8.10;;;10.20;99.90;;;;;;5031594;28;20520;-63
2022/03/12 09:44:23;;;;;;;14.63;8.60;;;11.00;99.90;;;;;;5029404;28;20134;-62
2022/03/12 09:46:50;;;;;;;16.88;8.90;;;;;;;;;;5030039;28;20072;-63
2022/03/12 09:49:16;;;;;;;12.15;7.78;;;10.90;99.90;;;;;;5047600;28;20036;-63
2022/03/12 09:51:43;;;;;;;11.07;7.20;;;10.70;99.90;;;;;;5030957;28;20052;-63
2022/03/12 09:54:08;;;;;;;12.82;7.72;;;10.80;99.90;;;;;;5030896;28;20044;-62
2022/03/12 09:56:35;;;;;;;15.32;8.65;;;;;;;;;;5031198;28;20135;-63
2022/03/12 09:59:01;;;;;;;12.98;8.05;;;;;;;;;;5030180;28;20041;-63
2022/03/12 10:01:27;;;;;;;12.45;8.00;;;;;;;;;;5047916;28;20075;-63
2022/03/12 10:03:53;;;;;;;14.00;8.68;;;;;;;;;;5046993;28;20041;-63
2022/03/12 10:06:18;;;;;;;10.85;7.20;;;10.90;99.90;;;;;;5014120;28;20103;-63
2022/03/12 10:08:45;;;;;;;13.05;7.72;;;;;;;;;;5045919;28;20041;-63
2022/03/12 10:11:11;;;;;;;11.68;7.32;;;;;;;;;;5033863;28;20379;-63
2022/03/12 10:13:37;;;;;;;12.57;7.00;;;11.20;99.90;;;;;;5030736;28;20080;-63
2022/03/12 10:16:03;;;;;;;11.75;6.63;;;;;;;;;;5048785;28;20060;-63
2022/03/12 10:18:29;;;;;;;10.40;6.78;;;11.70;99.90;;;;;;5030706;28;20474;-63
2022/03/12 10:20:57;;;;;;;12.35;8.23;;;11.80;99.90;;;;;;5031284;28;20091;-63
2022/03/12 10:23:23;;;;;;;10.05;6.30;;;11.60;99.90;;;;;;5029042;28;20041;-64
2022/03/12 10:25:49;;;;;;;11.30;7.32;;;11.70;99.90;;;;;;5048890;28;20482;-63
2022/03/12 10:28:16;;;;;;;10.60;7.00;;;;;;;;;;5015199;28;20429;-63
2022/03/12 10:30:42;;;;;;;13.07;6.90;;;;;;;;;;5045257;28;20072;-63
2022/03/12 10:33:08;;;;;;;12.90;7.45;;;;;;;;;;5031667;28;20048;-63
2022/03/12 10:35:38;;;;;;;12.00;7.13;;;11.80;99.90;;;;;;5048857;28;20045;-62
2022/03/12 10:38:11;;;;;;;11.10;7.30;;;11.90;99.90;;;;;;5065651;28;20094;-63
2022/03/12 10:40:37;;;;;;;12.00;6.90;;;;;;;;;;5051004;28;20060;-62
2022/03/12 10:43:12;;;;;;;11.48;6.60;;;12.00;99.90;;;;;;5042695;28;20040;-63
2022/03/12 10:45:58;;;;;;;10.43;6.63;;;12.10;99.90;;;;;;5048875;28;20399;-62
2022/03/12 10:48:29;;;;;;;10.18;6.40;;;11.90;99.90;;;;;;5029866;28;20048;-63
2022/03/12 10:50:55;;;;;;;11.85;7.00;;;;;;;;;;5052202;28;20412;-63
2022/03/12 10:53:22;;;;;;;12.65;7.25;;;;;;;;;;5034787;28;20051;-63
2022/03/12 10:55:50;;;;;;;11.05;7.15;;;12.30;99.90;;;;;;5036578;28;20508;-63
2022/03/12 10:58:23;;;;;;;11.23;7.70;;;12.30;99.90;;;;;;5019820;28;20049;-63
2022/03/12 11:00:59;;;;;;;11.07;7.05;;;12.40;99.90;;;;;;5017533;28;20049;-63
2022/03/12 11:03:31;;;;;;;10.68;6.63;;;12.50;99.90;;;;;;5017954;28;20041;-63
2022/03/12 11:05:57;;;;;;;11.18;6.72;;;;;;;;;;5021081;28;20039;-63
2022/03/12 11:08:27;;;;;;;11.98;7.10;;;12.80;99.90;;;;;;5053895;28;20039;-63
2022/03/12 11:10:59;;;;;;;10.93;6.38;;;12.50;99.90;;;;;;5036457;28;20041;-63
2022/03/12 11:13:46;;;;;;;11.32;6.53;;;12.50;99.90;;;;;;5050727;28;20111;-63
2022/03/12 11:16:22;;;;;;;9.88;6.32;;;12.60;99.90;;;;;;5036452;28;20060;-63
2022/03/12 11:18:51;;;;;;;11.05;7.38;;;12.50;99.90;;;;;;5016142;28;20136;-63
2022/03/12 11:21:39;;;;;;;13.38;6.43;;;12.40;99.90;;;;;;5017161;28;20123;-63
2022/03/12 11:24:17;;;;;;;14.65;7.30;;;12.60;99.90;;;;;;5017556;28;20069;-63
2022/03/12 11:26:53;;;;;;;10.65;6.93;;;12.50;99.90;;;;;;5016971;28;20047;-63
2022/03/12 11:29:22;;;;;;;10.68;5.63;;;12.50;99.90;;;;;;5020239;28;20041;-63
2022/03/12 11:31:52;;;;;;;11.50;6.40;;;13.10;99.90;;;;;;5054534;28;20040;-63
2022/03/12 11:34:25;;;;;;;12.82;6.47;;;12.70;99.90;;;;;;5036057;28;20055;-63
2022/03/12 11:37:05;;;;;;;9.15;6.40;;;13.40;99.90;;;;;;5036548;28;20044;-63
2022/03/12 11:39:34;;;;;;;12.15;7.00;;;13.20;99.90;;;;;;5036506;28;20048;-63
2022/03/12 11:42:11;;;;;;;10.85;6.80;;;12.90;99.90;;;;;;5032935;28;20054;-63
2022/03/12 11:44:49;;;;;;;8.68;5.60;;;13.30;99.90;;;;;;5045899;28;20045;-63
2022/03/12 11:47:18;;;;;;;11.30;6.45;;;12.80;99.90;;;;;;5049521;28;20091;-63
2022/03/12 11:49:44;;;;;;;11.50;6.38;;;12.90;99.90;;;;;;5030090;28;20038;-63
2022/03/12 11:52:10;;;;;;;9.32;6.13;;;13.30;99.90;;;;;;5053481;28;20041;-63
2022/03/12 11:54:38;;;;;;;14.20;7.20;;;14.10;99.90;;;;;;5047965;28;20091;-64
2022/03/12 11:57:06;;;;;;;9.95;6.57;;;13.70;99.90;;;;;;5034411;28;20084;-63
2022/03/12 11:59:32;;;;;;;10.65;6.55;;;13.30;99.90;;;;;;5033721;28;20044;-63
2022/03/12 12:02:22;;;;;;;8.82;5.40;;;13.20;99.90;;;;;;5032777;28;20439;-63
2022/03/12 12:04:51;;;;;;;9.88;5.20;;;;;;;;;;5039709;28;20059;-63
2022/03/12 12:07:17;;;;;;;9.07;4.90;;;13.50;99.90;;;;;;5053890;28;20045;-63
2022/03/12 12:09:42;;;;;;;9.45;6.18;;;13.20;99.90;;;;;;5036122;28;20037;-63
2022/03/12 12:12:13;;;;;;;9.73;5.75;;;13.30;99.90;;;;;;5036264;28;20089;-63
2022/03/12 12:14:43;;;;;;;11.13;6.45;;;13.30;99.90;;;;;;5035923;28;20116;-63
2022/03/12 12:17:10;;;;;;;10.07;6.20;;;12.90;99.90;;;;;;5035859;28;20052;-63
2022/03/12 12:19:36;;;;;;;14.63;6.20;;;13.00;99.90;;;;;;5047953;28;20165;-63
2022/03/12 12:22:09;;;;;;;8.90;4.72;;;13.30;99.90;;;;;;5024713;28;20128;-63
2022/03/12 12:24:39;;;;;;;11.88;5.63;;;13.50;99.90;;;;;;5033165;28;20124;-63
2022/03/12 12:27:08;;;;;;;8.82;4.70;;;13.70;99.90;;;;;;5049456;28;20041;-63
2022/03/12 12:29:46;;;;;;;11.63;5.05;;;13.00;99.90;;;;;;5015893;28;20425;-63
2022/03/12 12:32:15;;;;;;;11.93;6.15;;;13.60;99.90;;;;;;5033504;28;20118;-63
2022/03/12 12:35:05;;;;;;;8.52;4.65;;;13.80;99.90;;;;;;5035223;28;20351;-63
2022/03/12 12:37:40;;;;;;;8.85;5.20;;;13.50;99.90;;;;;;5033299;28;20087;-63
2022/03/12 12:40:24;;;;;;;8.13;4.50;;;13.40;99.90;;;;;;5032996;28;20041;-62
2022/03/12 12:42:52;;;;;;;8.05;4.00;;;13.30;99.90;;;;;;5008218;28;20060;-62
2022/03/12 12:45:23;;;;;;;8.38;4.70;;;13.60;99.90;;;;;;5044478;28;20045;-63
2022/03/12 12:48:10;;;;;;;8.35;5.28;;;13.70;99.90;;;;;;5045456;28;20363;-62
2022/03/12 12:50:37;;;;;;;9.75;4.93;;;13.60;99.90;;;;;;5031032;28;20049;-62
2022/03/12 12:53:10;;;;;;;9.70;5.88;;;14.30;99.90;;;;;;5031833;28;20878;-62
2022/03/12 12:55:37;;;;;;;12.00;6.28;;;;;;;;;;5012669;28;20568;-63
2022/03/12 12:58:03;;;;;;;12.35;6.90;;;;;;;;;;5025725;28;20056;-62
2022/03/12 13:00:32;;;;;;;10.32;5.95;;;;;;;;;;5029995;28;20118;-63
2022/03/12 13:03:00;;;;;;;9.45;6.20;;;14.00;99.90;;;;;;5012756;28;20490;-63
2022/03/12 13:05:44;;;;;;;11.55;6.07;;;14.00;99.90;;;;;;5013714;28;20442;-63